Time;durP1;ratioP1;P1;durP2;ratioP2;P2;SDS_P1;SDS_P2;PMS_P1;PMS_P2;Temp;Humidity;BMP_temperature;BMP_pressure;BME280_temperature;BME280_humidity;BME280_pressure;Samples;Min_cycle;Max_cycle;Signal;HPM_P1;HPM_P2
2023/03/16 00:01:30;;;;;;;3.20;2.90;;;6.90;59.60;;;;;;4988900;28;20042;-47
2023/03/16 00:03:58;;;;;;;2.85;2.65;;;6.90;59.60;;;;;;4992945;28;20038;-51
2023/03/16 00:06:35;;;;;;;3.97;2.70;;;6.90;59.70;;;;;;4992792;28;20044;-46
2023/03/16 00:09:05;;;;;;;2.85;2.55;;;6.90;59.80;;;;;;4988642;28;20050;-50
2023/03/16 00:11:34;;;;;;;6.35;2.53;;;7.00;59.80;;;;;;4992514;28;20402;-52
2023/03/16 00:14:03;;;;;;;3.53;2.63;;;7.00;59.80;;;;;;4992476;28;20038;-49
2023/03/16 00:16:30;;;;;;;4.00;3.10;;;7.00;59.80;;;;;;4992371;28;20046;-50
2023/03/16 00:18:58;;;;;;;3.65;2.67;;;7.00;59.90;;;;;;4989568;28;20097;-50
2023/03/16 00:21:26;;;;;;;3.47;2.60;;;7.10;59.80;;;;;;4989849;28;20562;-48
2023/03/16 00:23:55;;;;;;;3.75;2.47;;;7.10;59.80;;;;;;4989509;28;20039;-50
2023/03/16 00:26:22;;;;;;;2.90;2.58;;;7.10;59.80;;;;;;4992303;28;20054;-46
2023/03/16 00:28:53;;;;;;;4.32;3.05;;;7.20;59.90;;;;;;4974095;28;20133;-47
2023/03/16 00:31:27;;;;;;;5.25;3.30;;;7.20;59.90;;;;;;4965514;28;20035;-50
2023/03/16 00:33:53;;;;;;;3.13;2.83;;;7.30;59.90;;;;;;4982406;28;20062;-51
2023/03/16 00:36:21;;;;;;;5.03;3.03;;;7.30;59.80;;;;;;4992042;28;20039;-49
2023/03/16 00:38:52;;;;;;;3.80;3.30;;;7.30;59.70;;;;;;4990897;28;20565;-51
2023/03/16 00:41:21;;;;;;;3.05;2.78;;;7.40;59.80;;;;;;4987891;28;20038;-47
2023/03/16 00:43:50;;;;;;;4.32;2.65;;;7.40;59.60;;;;;;4992177;28;20060;-49
2023/03/16 00:46:25;;;;;;;2.85;2.65;;;7.40;59.50;;;;;;4991904;28;20034;-49
2023/03/16 00:48:53;;;;;;;4.10;2.80;;;7.50;59.60;;;;;;4990958;28;20077;-47
2023/03/16 00:51:21;;;;;;;2.72;2.53;;;7.50;59.50;;;;;;4985999;28;20039;-48
2023/03/16 00:53:53;;;;;;;3.63;2.72;;;7.50;59.40;;;;;;4970942;28;20042;-50
2023/03/16 00:56:22;;;;;;;4.95;2.90;;;7.50;59.30;;;;;;4982112;28;20531;-50
2023/03/16 00:58:48;;;;;;;2.83;2.60;;;7.60;59.40;;;;;;4972212;28;20052;-50
2023/03/16 01:01:21;;;;;;;3.28;2.30;;;7.60;59.40;;;;;;4983814;28;20050;-50
2023/03/16 01:03:49;;;;;;;2.92;2.58;;;7.60;59.50;;;;;;4991795;28;20503;-51
2023/03/16 01:06:22;;;;;;;3.50;2.67;;;7.60;59.40;;;;;;4983936;28;20041;-47
2023/03/16 01:08:51;;;;;;;2.75;2.33;;;7.60;59.40;;;;;;4985938;28;20060;-47
2023/03/16 01:11:21;;;;;;;3.22;2.72;;;7.70;59.30;;;;;;4983696;28;20034;-50
2023/03/16 01:13:53;;;;;;;4.53;2.35;;;7.70;59.20;;;;;;5025435;23;20077;-48
2023/03/16 01:16:24;;;;;;;4.05;2.50;;;7.70;59.20;;;;;;5002264;28;20132;-48
2023/03/16 01:18:58;;;;;;;2.50;2.30;;;7.70;59.10;;;;;;4992227;28;20076;-47
2023/03/16 01:21:32;;;;;;;3.45;2.20;;;7.70;59.10;;;;;;5007413;28;20042;-48
2023/03/16 01:24:03;;;;;;;2.33;2.13;;;7.70;59.20;;;;;;5005009;28;20061;-49
2023/03/16 01:26:32;;;;;;;2.40;2.20;;;7.70;59.20;;;;;;4992639;28;20053;-49
2023/03/16 01:29:02;;;;;;;2.88;2.08;;;7.70;59.30;;;;;;4991880;28;20049;-48
2023/03/16 01:31:29;;;;;;;3.47;2.88;;;7.70;59.30;;;;;;4986169;28;20056;-49
2023/03/16 01:33:59;;;;;;;3.08;2.40;;;7.70;59.30;;;;;;4981943;28;20089;-45
2023/03/16 01:36:30;;;;;;;2.47;2.28;;;7.70;59.20;;;;;;4993095;28;20038;-48
2023/03/16 01:39:02;;;;;;;2.78;2.50;;;7.70;59.20;;;;;;4991644;28;20054;-46
2023/03/16 01:41:45;;;;;;;3.85;2.33;;;7.70;59.10;;;;;;4993188;28;20041;-45
2023/03/16 01:44:16;;;;;;;2.67;2.20;;;7.70;59.20;;;;;;4985860;28;20054;-48
2023/03/16 01:46:45;;;;;;;2.72;2.50;;;7.70;59.20;;;;;;4988054;28;20087;-46
2023/03/16 01:49:24;;;;;;;3.17;2.35;;;7.70;59.30;;;;;;4991332;28;20144;-49
2023/03/16 01:52:04;;;;;;;3.13;2.42;;;7.70;59.40;;;;;;4990626;28;20598;-50
2023/03/16 01:54:59;;;;;;;3.33;2.63;;;7.70;59.40;;;;;;4987063;28;20584;-49
2023/03/16 01:57:34;;;;;;;2.70;2.35;;;7.70;59.50;;;;;;5003049;28;20062;-47
2023/03/16 02:00:30;;;;;;;3.53;2.25;;;7.70;59.30;;;;;;4992146;28;20042;-48
2023/03/16 02:03:12;;;;;;;2.85;2.38;;;7.70;59.40;;;;;;4990576;28;20054;-48
2023/03/16 02:05:51;;;;;;;3.60;2.28;;;7.70;59.40;;;;;;4992706;28;20052;-46
2023/03/16 02:08:23;;;;;;;4.38;2.90;;;7.70;59.40;;;;;;4982061;28;20038;-47
2023/03/16 02:10:53;;;;;;;2.33;2.08;;;7.70;59.40;;;;;;4980397;28;20049;-46
2023/03/16 02:13:25;;;;;;;8.07;2.65;;;7.70;59.40;;;;;;5009833;28;20042;-49
2023/03/16 02:15:58;;;;;;;4.60;2.33;;;7.80;59.50;;;;;;4991935;28;20046;-51
2023/03/16 02:18:25;;;;;;;3.30;2.55;;;7.70;59.40;;;;;;4982474;28;20049;-46
2023/03/16 02:21:15;;;;;;;3.38;2.38;;;7.70;59.60;;;;;;4989728;28;20507;-46
2023/03/16 02:23:50;;;;;;;5.80;2.72;;;7.70;59.50;;;;;;4987616;28;20091;-45
2023/03/16 02:26:35;;;;;;;2.53;2.33;;;7.70;59.50;;;;;;4991361;28;20048;-45
2023/03/16 02:29:40;;;;;;;3.75;3.28;;;7.70;59.80;;;;;;4991243;28;20049;-47
2023/03/16 02:32:11;;;;;;;3.70;2.77;;;7.70;60.10;;;;;;4984224;28;20038;-45
2023/03/16 02:34:44;;;;;;;6.53;2.78;;;7.60;59.50;;;;;;5001459;28;20046;-48
2023/03/16 02:37:15;;;;;;;3.88;2.58;;;7.60;59.50;;;;;;4991726;28;20042;-49
2023/03/16 02:39:49;;;;;;;2.95;2.30;;;7.60;59.60;;;;;;4991436;28;20489;-46
2023/03/16 02:42:23;;;;;;;3.20;2.33;;;7.70;59.70;;;;;;4988899;28;20500;-45
2023/03/16 02:44:57;;;;;;;4.20;2.50;;;7.60;59.70;;;;;;4996495;28;20092;-46
2023/03/16 02:47:41;;;;;;;4.70;2.67;;;7.60;59.80;;;;;;4985302;28;20074;-48
2023/03/16 02:50:11;;;;;;;3.03;2.30;;;7.70;60.00;;;;;;5006253;28;20089;-45
2023/03/16 02:52:42;;;;;;;4.78;2.45;;;7.70;59.90;;;;;;5002424;28;20578;-46
2023/03/16 02:55:09;;;;;;;4.43;2.50;;;7.70;59.90;;;;;;4994008;28;20080;-47
2023/03/16 02:57:39;;;;;;;3.13;2.60;;;7.80;60.00;;;;;;4995935;28;20092;-47
2023/03/16 03:00:16;;;;;;;3.67;2.28;;;7.70;59.90;;;;;;4990291;28;20052;-47
2023/03/16 03:02:48;;;;;;;4.10;2.88;;;7.70;59.90;;;;;;4994354;28;20049;-48
2023/03/16 03:05:22;;;;;;;2.42;2.10;;;7.70;59.90;;;;;;5013353;28;20045;-49
2023/03/16 03:07:55;;;;;;;3.50;2.22;;;7.70;60.00;;;;;;4994554;28;20689;-46
2023/03/16 03:10:22;;;;;;;5.28;2.47;;;7.70;59.80;;;;;;4987206;28;20049;-50
2023/03/16 03:12:56;;;;;;;3.75;2.30;;;7.70;59.80;;;;;;4995835;28;20470;-45
2023/03/16 03:15:25;;;;;;;3.10;2.40;;;7.70;59.90;;;;;;4995542;28;20042;-46
2023/03/16 03:18:10;;;;;;;3.63;2.58;;;7.70;59.90;;;;;;4990002;28;20046;-47
2023/03/16 03:20:41;;;;;;;4.10;2.42;;;7.70;59.90;;;;;;5002317;28;20104;-48
2023/03/16 03:23:11;;;;;;;3.05;2.70;;;7.70;59.90;;;;;;5001564;28;20133;-48
2023/03/16 03:25:40;;;;;;;3.60;2.58;;;7.70;60.00;;;;;;5012792;28;20048;-47
2023/03/16 03:28:11;;;;;;;3.17;2.80;;;7.70;60.10;;;;;;5012627;28;20041;-48
2023/03/16 03:30:54;;;;;;;3.10;2.67;;;7.80;60.10;;;;;;4992018;28;20046;-47
2023/03/16 03:33:21;;;;;;;6.75;3.05;;;7.70;60.10;;;;;;5007890;28;20050;-48
2023/03/16 03:36:00;;;;;;;2.65;2.35;;;7.70;60.00;;;;;;5003912;28;20037;-46
2023/03/16 03:38:35;;;;;;;5.10;2.38;;;7.80;60.00;;;;;;4987322;28;20133;-46
2023/03/16 03:41:01;;;;;;;4.13;2.40;;;7.70;59.90;;;;;;4994598;28;20137;-47
2023/03/16 03:43:33;;;;;;;2.30;2.03;;;7.70;60.00;;;;;;4996474;28;20038;-46
2023/03/16 03:46:01;;;;;;;2.80;2.60;;;7.70;60.00;;;;;;4993369;28;20049;-47
2023/03/16 03:48:30;;;;;;;3.38;2.50;;;7.70;60.00;;;;;;4988014;28;20033;-47
2023/03/16 03:51:07;;;;;;;5.03;2.60;;;7.70;60.00;;;;;;5002371;28;20125;-48
2023/03/16 03:53:55;;;;;;;2.78;2.33;;;7.70;60.10;;;;;;4986621;28;20038;-48
2023/03/16 03:56:37;;;;;;;3.10;2.35;;;7.80;60.00;;;;;;4975921;28;20128;-45
2023/03/16 03:59:10;;;;;;;3.65;2.35;;;7.70;60.00;;;;;;4983196;28;20536;-46
2023/03/16 04:01:59;;;;;;;2.30;2.10;;;7.80;60.10;;;;;;4990617;28;20713;-45
2023/03/16 04:04:42;;;;;;;2.88;2.58;;;7.70;60.10;;;;;;5004819;28;20764;-47
2023/03/16 04:07:11;;;;;;;2.75;2.50;;;7.70;60.30;;;;;;4994765;28;20045;-47
2023/03/16 04:09:38;;;;;;;2.63;2.33;;;7.70;60.20;;;;;;4987501;28;20144;-47
2023/03/16 04:12:07;;;;;;;2.83;2.30;;;7.80;60.40;;;;;;4994822;28;20042;-47
2023/03/16 04:14:34;;;;;;;2.63;2.40;;;7.70;60.40;;;;;;4990847;28;20467;-45
2023/03/16 04:17:16;;;;;;;2.42;2.13;;;7.70;60.50;;;;;;4992767;28;20042;-48
2023/03/16 04:19:44;;;;;;;3.90;2.33;;;7.80;60.60;;;;;;4987618;28;20046;-45
2023/03/16 04:22:14;;;;;;;2.72;2.53;;;7.80;60.70;;;;;;4989754;28;20093;-45
2023/03/16 04:24:51;;;;;;;2.95;2.40;;;7.80;60.70;;;;;;4988020;28;20046;-46
2023/03/16 04:27:23;;;;;;;4.53;2.25;;;7.70;60.60;;;;;;4988408;28;20503;-47
2023/03/16 04:29:58;;;;;;;2.38;2.17;;;7.70;60.60;;;;;;5003206;28;20096;-47
2023/03/16 04:32:25;;;;;;;2.80;2.35;;;7.80;60.60;;;;;;4999582;28;20052;-45
2023/03/16 04:34:55;;;;;;;3.28;2.50;;;7.80;60.60;;;;;;4989013;28;20065;-46
2023/03/16 04:37:41;;;;;;;3.35;2.42;;;7.80;60.70;;;;;;5001049;28;20049;-47
2023/03/16 04:40:15;;;;;;;2.70;2.03;;;7.80;60.60;;;;;;4986023;28;20045;-45
2023/03/16 04:42:47;;;;;;;2.47;2.10;;;7.80;60.60;;;;;;5002419;28;20042;-46
2023/03/16 04:45:18;;;;;;;2.67;2.47;;;7.80;60.60;;;;;;5004643;28;20038;-47
2023/03/16 04:47:50;;;;;;;2.53;2.20;;;7.80;60.60;;;;;;4985348;28;20309;-45
2023/03/16 04:50:16;;;;;;;2.70;2.28;;;7.80;60.50;;;;;;4987602;28;20045;-49
2023/03/16 04:52:49;;;;;;;2.55;2.35;;;7.90;60.70;;;;;;4988331;28;20678;-46
2023/03/16 04:55:21;;;;;;;2.95;2.42;;;7.80;60.60;;;;;;4985716;28;20514;-46
2023/03/16 04:57:51;;;;;;;3.35;2.28;;;7.80;60.70;;;;;;4984715;28;20589;-49
2023/03/16 05:00:22;;;;;;;2.35;2.13;;;7.80;60.70;;;;;;4989013;28;20065;-46
2023/03/16 05:03:15;;;;;;;2.50;2.30;;;7.80;60.70;;;;;;5002223;28;20101;-46
2023/03/16 05:05:45;;;;;;;4.28;2.45;;;7.90;60.80;;;;;;5000694;28;20034;-50
2023/03/16 05:08:13;;;;;;;2.80;2.50;;;7.80;60.70;;;;;;4988907;28;20080;-46
2023/03/16 05:10:43;;;;;;;2.72;2.08;;;7.80;60.70;;;;;;4985574;28;20745;-47
2023/03/16 05:13:11;;;;;;;6.53;2.53;;;7.80;60.70;;;;;;4987123;28;20042;-50
2023/03/16 05:15:38;;;;;;;3.10;2.20;;;7.80;60.70;;;;;;4970833;28;20034;-46
2023/03/16 05:18:26;;;;;;;2.15;1.95;;;7.90;60.80;;;;;;4985902;28;20503;-47
2023/03/16 05:20:55;;;;;;;2.80;2.53;;;7.90;60.80;;;;;;5005512;28;20069;-49
2023/03/16 05:23:32;;;;;;;5.03;2.55;;;7.90;60.70;;;;;;4972655;28;20072;-50
2023/03/16 05:26:10;;;;;;;3.75;2.65;;;7.90;61.40;;;;;;4985162;28;20066;-46
2023/03/16 05:28:41;;;;;;;2.35;2.15;;;7.90;61.00;;;;;;5000777;28;20104;-48
2023/03/16 05:31:12;;;;;;;3.17;2.50;;;7.90;60.80;;;;;;4989388;28;20573;-49
2023/03/16 05:33:48;;;;;;;4.45;2.60;;;7.90;60.80;;;;;;4989166;28;20137;-46
2023/03/16 05:36:20;;;;;;;2.72;2.53;;;7.90;60.90;;;;;;4987136;28;20062;-47
2023/03/16 05:38:54;;;;;;;3.55;2.50;;;7.90;60.90;;;;;;4983728;28;20046;-50
2023/03/16 05:41:32;;;;;;;2.45;2.25;;;7.90;60.90;;;;;;4980679;28;20061;-48
2023/03/16 05:44:06;;;;;;;3.38;2.33;;;7.90;60.80;;;;;;4982678;28;20042;-46
2023/03/16 05:46:49;;;;;;;3.38;2.47;;;7.90;60.90;;;;;;4986894;28;20121;-48
2023/03/16 05:49:16;;;;;;;2.65;2.45;;;8.00;61.00;;;;;;4992204;28;20045;-48
2023/03/16 05:51:43;;;;;;;3.38;2.92;;;8.00;61.00;;;;;;4982813;28;20137;-46
2023/03/16 05:54:12;;;;;;;3.22;2.58;;;8.00;61.10;;;;;;4983137;28;20046;-47
2023/03/16 05:56:44;;;;;;;2.92;2.55;;;8.00;61.20;;;;;;4993339;28;20042;-49
2023/03/16 05:59:17;;;;;;;3.22;2.65;;;8.00;61.10;;;;;;4989518;28;20043;-48
2023/03/16 06:01:51;;;;;;;3.42;3.13;;;8.00;61.10;;;;;;4989107;28;20058;-46
2023/03/16 06:04:28;;;;;;;4.22;2.75;;;8.00;61.20;;;;;;5010382;28;20071;-47
2023/03/16 06:06:58;;;;;;;2.95;2.70;;;8.00;61.20;;;;;;4986951;28;20141;-49
2023/03/16 06:09:28;;;;;;;3.08;2.50;;;8.00;61.20;;;;;;4990615;28;20522;-50
2023/03/16 06:11:58;;;;;;;4.25;2.80;;;8.10;61.90;;;;;;5011041;28;20037;-50
2023/03/16 06:14:32;;;;;;;5.43;3.17;;;8.00;61.30;;;;;;4992595;28;20072;-48
2023/03/16 06:17:03;;;;;;;3.28;2.80;;;8.10;61.40;;;;;;4991316;28;20136;-50
2023/03/16 06:19:30;;;;;;;3.40;2.85;;;8.10;61.30;;;;;;4983513;28;20093;-48
2023/03/16 06:21:59;;;;;;;3.95;3.55;;;8.10;61.30;;;;;;4988630;28;20078;-48
2023/03/16 06:24:34;;;;;;;4.15;3.00;;;8.10;61.20;;;;;;5003332;28;20056;-47
2023/03/16 06:27:03;;;;;;;5.03;3.15;;;8.10;61.30;;;;;;4976224;28;20514;-49
2023/03/16 06:29:36;;;;;;;4.60;3.22;;;8.10;61.20;;;;;;4988357;28;20070;-50
2023/03/16 06:32:04;;;;;;;4.55;3.20;;;8.10;61.20;;;;;;4990303;28;20041;-48
2023/03/16 06:34:31;;;;;;;5.57;3.05;;;8.10;61.20;;;;;;4996423;28;20129;-51
2023/03/16 06:36:57;;;;;;;3.40;3.10;;;8.10;61.20;;;;;;5000600;28;20057;-50
2023/03/16 06:39:27;;;;;;;3.38;3.08;;;8.10;61.30;;;;;;5007848;28;20436;-48
2023/03/16 06:41:53;;;;;;;4.10;3.42;;;8.20;61.40;;;;;;4992513;28;20038;-45
2023/03/16 06:44:23;;;;;;;4.53;4.10;;;8.20;61.40;;;;;;4988055;28;20490;-46
2023/03/16 06:46:58;;;;;;;4.05;3.63;;;8.20;61.50;;;;;;4992086;28;20073;-46
2023/03/16 06:49:30;;;;;;;4.45;4.05;;;8.20;61.40;;;;;;4991166;28;20049;-46
2023/03/16 06:51:57;;;;;;;3.92;3.22;;;8.30;61.50;;;;;;4987065;28;20400;-50
2023/03/16 06:54:25;;;;;;;2.97;2.67;;;8.30;61.50;;;;;;5000867;28;20125;-48
2023/03/16 06:56:52;;;;;;;3.50;3.20;;;8.30;61.40;;;;;;4992120;28;20038;-48
2023/03/16 06:59:21;;;;;;;4.63;3.45;;;8.40;61.40;;;;;;4988993;28;20033;-50
2023/03/16 07:01:49;;;;;;;6.88;3.40;;;8.40;61.40;;;;;;4993661;28;20046;-48
2023/03/16 07:04:21;;;;;;;3.50;3.00;;;8.40;61.50;;;;;;5009080;28;20125;-47
2023/03/16 07:06:50;;;;;;;4.88;3.33;;;8.50;61.60;;;;;;4991718;28;20048;-45
2023/03/16 07:09:20;;;;;;;;;;;8.50;61.60;;;;;;4990538;28;20053;-50
2023/03/16 07:11:47;;;;;;;3.28;2.30;;;8.60;61.80;;;;;;4987379;28;19968;-47
2023/03/16 07:14:22;;;;;;;3.53;2.85;;;8.60;61.10;;;;;;4986178;28;20434;-47
2023/03/16 07:16:49;;;;;;;3.38;2.88;;;8.70;61.40;;;;;;4990921;28;20130;-46
2023/03/16 07:19:21;;;;;;;3.65;2.75;;;8.70;61.40;;;;;;4990730;28;20057;-50
2023/03/16 07:21:51;;;;;;;3.95;3.17;;;8.70;61.40;;;;;;4981539;28;20042;-50
2023/03/16 07:24:21;;;;;;;3.45;3.15;;;8.80;61.50;;;;;;4987982;28;20057;-50
2023/03/16 07:26:48;;;;;;;2.92;2.70;;;8.80;61.60;;;;;;4990933;28;20049;-50
2023/03/16 07:29:24;;;;;;;3.55;3.10;;;8.80;61.40;;;;;;4990801;28;20760;-49
2023/03/16 07:31:54;;;;;;;4.32;2.90;;;8.90;61.40;;;;;;4988462;28;20406;-49
2023/03/16 07:34:26;;;;;;;3.63;3.00;;;8.90;61.30;;;;;;4987126;28;20117;-50
2023/03/16 07:36:58;;;;;;;3.97;3.15;;;9.00;61.30;;;;;;4994338;28;20042;-51
2023/03/16 07:39:35;;;;;;;5.55;3.40;;;9.00;61.50;;;;;;4994315;28;20050;-50
2023/03/16 07:42:09;;;;;;;4.88;2.88;;;9.10;61.40;;;;;;4986265;28;20549;-50
2023/03/16 07:44:53;;;;;;;3.38;3.05;;;9.30;61.50;;;;;;4986990;28;20046;-50
2023/03/16 07:47:24;;;;;;;4.63;3.65;;;9.20;61.20;;;;;;4991541;28;20049;-50
2023/03/16 07:49:55;;;;;;;4.13;2.88;;;9.20;61.20;;;;;;4993900;28;20509;-49
2023/03/16 07:52:29;;;;;;;5.13;2.83;;;9.30;61.30;;;;;;4978342;28;20054;-52
2023/03/16 07:54:56;;;;;;;3.60;3.30;;;9.30;61.20;;;;;;4995478;28;20045;-48
2023/03/16 07:57:23;;;;;;;3.95;3.00;;;9.40;61.20;;;;;;4995449;28;20077;-50
2023/03/16 07:59:55;;;;;;;;;;;9.40;61.40;;;;;;4993157;28;20038;-50
2023/03/16 08:02:24;;;;;;;3.75;3.25;;;9.50;61.60;;;;;;4987684;28;19922;-49
2023/03/16 08:04:58;;;;;;;4.40;3.80;;;9.50;61.10;;;;;;4995828;28;20046;-50
2023/03/16 08:07:24;;;;;;;5.95;3.90;;;9.60;61.10;;;;;;4994018;28;20074;-49
2023/03/16 08:10:05;;;;;;;5.00;3.85;;;9.60;61.10;;;;;;4988510;28;20112;-49
2023/03/16 08:12:42;;;;;;;5.10;3.60;;;9.70;61.30;;;;;;4994661;28;20042;-49
2023/03/16 08:15:12;;;;;;;4.47;3.45;;;9.70;61.20;;;;;;5006063;23;20088;-51
2023/03/16 08:17:46;;;;;;;4.63;3.45;;;9.70;61.30;;;;;;4993000;28;20434;-53
2023/03/16 08:20:22;;;;;;;4.65;3.25;;;9.80;61.40;;;;;;5017497;28;20065;-53
2023/03/16 08:22:54;;;;;;;3.47;3.17;;;9.80;61.40;;;;;;4991176;28;20053;-50
2023/03/16 08:25:33;;;;;;;4.55;3.25;;;9.90;61.50;;;;;;5006835;28;20100;-50
2023/03/16 08:28:09;;;;;;;4.88;3.50;;;9.90;61.60;;;;;;5008122;28;20050;-51
2023/03/16 08:30:43;;;;;;;5.50;3.10;;;10.00;61.60;;;;;;4994964;28;20051;-50
2023/03/16 08:33:31;;;;;;;5.00;3.22;;;10.00;61.90;;;;;;4985024;28;20058;-47
2023/03/16 08:36:04;;;;;;;4.50;3.22;;;10.10;61.60;;;;;;4990776;28;20042;-49
2023/03/16 08:38:32;;;;;;;4.80;3.33;;;10.10;61.90;;;;;;4992249;28;20048;-52
2023/03/16 08:41:04;;;;;;;4.78;3.40;;;10.20;62.10;;;;;;4986974;28;20045;-47
2023/03/16 08:43:36;;;;;;;3.95;3.17;;;10.30;62.10;;;;;;4988875;28;20039;-49
2023/03/16 08:46:04;;;;;;;5.63;3.55;;;10.30;62.00;;;;;;4992656;28;20086;-53
2023/03/16 08:48:44;;;;;;;7.22;4.30;;;10.40;62.10;;;;;;4990602;28;20042;-48
2023/03/16 08:51:13;;;;;;;3.60;3.25;;;10.50;62.20;;;;;;4964108;28;20050;-50
2023/03/16 08:53:43;;;;;;;5.20;3.70;;;10.50;62.20;;;;;;4976687;28;20035;-49
2023/03/16 08:56:13;;;;;;;4.78;3.45;;;10.50;62.20;;;;;;4991952;28;20042;-49
2023/03/16 08:58:44;;;;;;;5.05;3.08;;;10.60;62.30;;;;;;4992384;28;20042;-51
2023/03/16 09:01:19;;;;;;;3.95;3.55;;;10.70;62.30;;;;;;4976396;28;20487;-51
2023/03/16 09:03:48;;;;;;;5.07;3.05;;;10.80;62.10;;;;;;4980816;28;20459;-52
2023/03/16 09:06:16;;;;;;;5.55;3.42;;;10.80;61.70;;;;;;4991530;28;20045;-51
2023/03/16 09:08:44;;;;;;;4.05;2.92;;;10.90;61.50;;;;;;4984316;28;20068;-51
2023/03/16 09:11:13;;;;;;;3.28;3.00;;;10.90;61.50;;;;;;4981516;28;20466;-48
2023/03/16 09:13:43;;;;;;;3.90;2.78;;;11.00;61.30;;;;;;4991759;28;20042;-52
2023/03/16 09:16:14;;;;;;;3.25;2.90;;;11.10;61.40;;;;;;4990963;28;20094;-48
2023/03/16 09:18:42;;;;;;;3.13;2.83;;;11.10;61.50;;;;;;4975804;28;20053;-48
2023/03/16 09:21:11;;;;;;;3.85;3.10;;;11.20;61.20;;;;;;4976007;28;20043;-48
2023/03/16 09:23:40;;;;;;;3.58;3.08;;;11.20;61.00;;;;;;4975623;28;20053;-48
2023/03/16 09:26:12;;;;;;;4.15;2.95;;;11.30;60.80;;;;;;4991816;28;20129;-50
2023/03/16 09:28:40;;;;;;;5.30;2.58;;;11.40;60.70;;;;;;4986033;28;20058;-47
2023/03/16 09:31:09;;;;;;;5.57;2.92;;;11.40;60.70;;;;;;4974835;28;20097;-47
2023/03/16 09:33:38;;;;;;;5.00;2.90;;;11.50;60.50;;;;;;4975092;28;20054;-51
2023/03/16 09:36:10;;;;;;;2.80;2.60;;;11.50;60.40;;;;;;4978462;28;20038;-47
2023/03/16 09:38:37;;;;;;;5.03;2.63;;;11.60;60.20;;;;;;4991144;28;20061;-50
2023/03/16 09:41:15;;;;;;;4.25;2.70;;;11.60;60.20;;;;;;4974781;28;20395;-51
2023/03/16 09:44:03;;;;;;;3.00;2.55;;;11.60;60.00;;;;;;4975381;28;20422;-47
2023/03/16 09:46:44;;;;;;;4.30;2.58;;;11.70;60.00;;;;;;4991338;28;20416;-50
2023/03/16 09:49:16;;;;;;;6.35;3.13;;;11.80;59.80;;;;;;4990694;28;20434;-50
2023/03/16 09:52:19;;;;;;;4.38;2.83;;;11.90;59.80;;;;;;4962843;28;20042;-48
2023/03/16 09:55:24;;;;;;;3.25;2.95;;;12.00;59.50;;;;;;4968485;28;20065;-51
2023/03/16 09:57:53;;;;;;;2.40;2.20;;;12.10;59.30;;;;;;4976775;28;20383;-48
2023/03/16 10:00:33;;;;;;;5.50;2.40;;;12.10;59.50;;;;;;4987968;28;20049;-49
2023/03/16 10:03:34;;;;;;;6.60;2.80;;;12.20;59.40;;;;;;4980550;28;20480;-49
2023/03/16 10:06:08;;;;;;;3.35;2.72;;;12.30;58.60;;;;;;4990611;28;20092;-49
2023/03/16 10:08:41;;;;;;;3.58;2.60;;;12.40;58.50;;;;;;4980134;28;20090;-50
2023/03/16 10:11:25;;;;;;;2.53;2.20;;;12.50;58.20;;;;;;4980209;28;20053;-48
2023/03/16 10:14:21;;;;;;;3.00;2.55;;;12.50;57.80;;;;;;4976252;28;20411;-47
2023/03/16 10:17:02;;;;;;;3.80;2.50;;;12.60;57.50;;;;;;4990763;28;20100;-51
2023/03/16 10:19:37;;;;;;;3.97;2.15;;;12.60;57.40;;;;;;4972354;28;20046;-50
2023/03/16 10:22:19;;;;;;;3.80;2.72;;;12.70;57.50;;;;;;4971981;28;20038;-48
2023/03/16 10:25:13;;;;;;;3.90;2.25;;;12.70;57.40;;;;;;4982604;28;20085;-50
2023/03/16 10:27:48;;;;;;;2.92;2.00;;;12.80;56.90;;;;;;4989956;28;20070;-47
2023/03/16 10:30:18;;;;;;;3.00;2.30;;;12.70;56.80;;;;;;4978432;28;20066;-51
2023/03/16 10:32:50;;;;;;;2.50;1.90;;;12.70;57.40;;;;;;4968041;28;20069;-47
2023/03/16 10:35:40;;;;;;;4.40;2.35;;;12.70;57.70;;;;;;4971739;28;20058;-47
2023/03/16 10:38:29;;;;;;;4.00;3.10;;;12.60;57.80;;;;;;4979281;28;20418;-50
2023/03/16 10:41:01;;;;;;;2.45;2.13;;;12.70;58.50;;;;;;4989538;28;20069;-49
2023/03/16 10:43:31;;;;;;;2.75;2.33;;;12.70;58.10;;;;;;4976928;28;20047;-48
2023/03/16 10:46:01;;;;;;;2.50;2.28;;;12.70;57.80;;;;;;4983993;28;20046;-53
2023/03/16 10:48:32;;;;;;;1.75;1.63;;;12.70;57.40;;;;;;4974523;28;20070;-54
2023/03/16 10:51:05;;;;;;;2.17;1.92;;;12.80;58.00;;;;;;4996988;28;20054;-50
2023/03/16 10:53:35;;;;;;;6.05;3.45;;;12.80;57.40;;;;;;4986163;28;20077;-50
2023/03/16 10:56:12;;;;;;;3.03;1.90;;;12.80;57.60;;;;;;4990521;28;20038;-52
2023/03/16 10:58:41;;;;;;;2.03;1.92;;;12.90;57.30;;;;;;4983698;28;20039;-47
2023/03/16 11:01:26;;;;;;;3.63;2.35;;;12.90;57.20;;;;;;4977464;28;20065;-50
2023/03/16 11:03:59;;;;;;;3.67;2.58;;;13.00;57.00;;;;;;4977760;28;20541;-49
2023/03/16 11:06:31;;;;;;;2.67;2.17;;;13.00;57.20;;;;;;4993929;28;20112;-52
2023/03/16 11:09:13;;;;;;;2.80;2.28;;;13.00;57.10;;;;;;4968224;28;20051;-49
2023/03/16 11:11:48;;;;;;;4.07;2.38;;;13.10;56.60;;;;;;4988531;28;20053;-51
2023/03/16 11:14:24;;;;;;;2.85;2.10;;;13.10;57.00;;;;;;4994656;28;20064;-51
2023/03/16 11:16:57;;;;;;;3.05;2.60;;;13.20;56.90;;;;;;4979521;28;20581;-51
2023/03/16 11:19:33;;;;;;;2.45;2.22;;;13.30;56.90;;;;;;4983347;28;20101;-48
2023/03/16 11:22:08;;;;;;;3.70;2.13;;;13.30;56.90;;;;;;4967136;28;20518;-48
2023/03/16 11:24:48;;;;;;;2.78;2.45;;;13.40;56.80;;;;;;4993254;28;20070;-47
2023/03/16 11:27:30;;;;;;;4.00;2.05;;;13.40;56.20;;;;;;4978277;28;20050;-47
2023/03/16 11:30:17;;;;;;;2.15;1.95;;;13.50;56.50;;;;;;4979328;28;20039;-50
2023/03/16 11:32:52;;;;;;;3.10;2.08;;;13.60;56.70;;;;;;4994068;28;20069;-51
2023/03/16 11:35:20;;;;;;;4.95;2.58;;;13.70;56.70;;;;;;4974804;28;20042;-49
2023/03/16 11:38:02;;;;;;;2.85;1.77;;;13.80;57.20;;;;;;4978308;28;20042;-49
2023/03/16 11:40:59;;;;;;;2.60;1.67;;;13.90;56.70;;;;;;4983356;28;20086;-48
2023/03/16 11:43:48;;;;;;;3.00;1.30;;;14.00;55.30;;;;;;4996652;28;20137;-50
2023/03/16 11:46:30;;;;;;;3.25;1.40;;;14.20;54.70;;;;;;4993601;28;20085;-50
2023/03/16 11:49:30;;;;;;;3.15;1.95;;;14.30;55.50;;;;;;4978865;28;20057;-51
2023/03/16 11:52:16;;;;;;;1.98;1.50;;;14.50;55.00;;;;;;4964123;28;20136;-50
2023/03/16 11:55:20;;;;;;;2.05;1.33;;;14.60;54.50;;;;;;4982571;28;20038;-48
2023/03/16 11:58:06;;;;;;;1.45;1.23;;;14.70;54.40;;;;;;4987052;28;20062;-51
2023/03/16 12:01:11;;;;;;;1.98;1.45;;;14.90;54.50;;;;;;4993246;28;20069;-49
2023/03/16 12:03:52;;;;;;;3.67;1.65;;;15.10;54.60;;;;;;4990692;28;20051;-50
2023/03/16 12:06:40;;;;;;;1.87;1.30;;;15.20;54.40;;;;;;4989638;28;20048;-50
2023/03/16 12:09:42;;;;;;;2.45;1.60;;;15.30;54.00;;;;;;4993644;28;20073;-48
2023/03/16 12:12:24;;;;;;;2.92;1.30;;;15.50;53.30;;;;;;4968379;28;20063;-48
2023/03/16 12:15:18;;;;;;;2.67;1.35;;;15.70;53.70;;;;;;4978808;28;20038;-49
2023/03/16 12:17:50;;;;;;;2.90;1.33;;;15.80;53.20;;;;;;4983451;28;20515;-48
2023/03/16 12:20:28;;;;;;;2.67;1.08;;;15.90;53.50;;;;;;4988613;28;20042;-52
2023/03/16 12:23:03;;;;;;;2.22;1.08;;;16.00;52.90;;;;;;4976916;28;20058;-52
2023/03/16 12:25:36;;;;;;;3.45;1.30;;;16.10;52.70;;;;;;4993047;28;20048;-51
2023/03/16 12:28:12;;;;;;;1.30;0.82;;;16.30;52.20;;;;;;4979080;28;20050;-50
2023/03/16 12:30:52;;;;;;;0.65;0.65;;;16.40;51.70;;;;;;4981314;28;20047;-52
2023/03/16 12:33:44;;;;;;;0.88;0.50;;;16.40;51.00;;;;;;4977394;28;20043;-49
2023/03/16 12:36:31;;;;;;;1.25;0.63;;;16.50;50.10;;;;;;4987502;28;20043;-47
2023/03/16 12:39:10;;;;;;;2.30;0.90;;;16.60;49.90;;;;;;4971503;28;20097;-49
2023/03/16 12:41:56;;;;;;;1.27;0.68;;;16.60;49.10;;;;;;4970988;28;20412;-50
2023/03/16 12:44:31;;;;;;;1.80;0.60;;;16.70;49.80;;;;;;4984961;28;20052;-49
2023/03/16 12:47:14;;;;;;;1.35;0.57;;;16.70;49.10;;;;;;4993046;28;20471;-52
2023/03/16 12:49:43;;;;;;;0.90;0.90;;;16.70;49.40;;;;;;4973947;28;20496;-48
2023/03/16 12:52:13;;;;;;;1.17;1.00;;;16.70;50.00;;;;;;4971654;28;20042;-49
2023/03/16 12:55:04;;;;;;;2.15;0.80;;;16.80;49.90;;;;;;4991144;28;20044;-48
2023/03/16 12:57:31;;;;;;;2.13;0.70;;;16.80;49.40;;;;;;4993134;28;20042;-48
2023/03/16 13:00:07;;;;;;;1.30;1.08;;;16.80;49.40;;;;;;4975221;28;20042;-48
2023/03/16 13:02:37;;;;;;;1.20;1.10;;;16.80;48.70;;;;;;4990982;28;20046;-51
2023/03/16 13:05:14;;;;;;;1.73;0.70;;;16.80;48.70;;;;;;4977164;28;20045;-48
2023/03/16 13:07:54;;;;;;;1.05;0.75;;;16.80;48.70;;;;;;4980287;28;20042;-51
2023/03/16 13:10:27;;;;;;;1.40;0.60;;;16.70;49.30;;;;;;4977830;28;20066;-48
2023/03/16 13:12:54;;;;;;;0.95;0.65;;;16.70;49.30;;;;;;4992216;28;20125;-47
2023/03/16 13:15:27;;;;;;;1.33;0.80;;;16.70;49.30;;;;;;4992315;28;20046;-51
2023/03/16 13:18:20;;;;;;;1.77;0.60;;;16.70;49.00;;;;;;4976201;28;20042;-50
2023/03/16 13:20:52;;;;;;;1.23;0.80;;;16.70;49.20;;;;;;4979543;28;20055;-49
2023/03/16 13:23:22;;;;;;;1.55;0.98;;;16.70;49.60;;;;;;4978356;28;20054;-48
2023/03/16 13:26:15;;;;;;;1.67;0.60;;;16.70;49.70;;;;;;4992183;28;20121;-48
2023/03/16 13:28:46;;;;;;;3.03;0.82;;;16.80;49.00;;;;;;4991642;28;20058;-49
2023/03/16 13:31:40;;;;;;;1.83;0.60;;;16.80;49.40;;;;;;4981210;28;20540;-49